createdAt,value
2018-02-27T00:00:36.260Z,0
2018-02-27T00:01:36.233Z,0
2018-02-27T00:02:35.936Z,0
2018-02-27T00:03:36.168Z,0
2018-02-27T00:04:36.672Z,0
2018-02-27T00:05:36.120Z,0
2018-02-27T00:06:36.629Z,0
2018-02-27T00:07:36.059Z,0
2018-02-27T00:08:36.559Z,0
2018-02-27T00:09:36.004Z,0
2018-02-27T00:10:36.239Z,0
2018-02-27T00:11:35.955Z,0
2018-02-27T00:12:36.455Z,0
2018-02-27T00:13:36.152Z,0
2018-02-27T00:14:35.904Z,0
2018-02-27T00:15:36.096Z,0
2018-02-27T00:16:35.857Z,0
2018-02-27T00:17:36.039Z,0
2018-02-27T00:18:36.277Z,0
2018-02-27T00:19:35.993Z,0
2018-02-27T00:20:35.693Z,0
2018-02-27T00:21:35.400Z,0
2018-02-27T00:22:35.644Z,0
2018-02-27T00:23:35.607Z,0
2018-02-27T00:24:35.870Z,0
2018-02-27T00:25:35.826Z,0
2018-02-27T00:26:35.794Z,0
2018-02-27T00:27:35.818Z,0
2018-02-27T00:28:35.462Z,0
2018-02-27T00:29:35.442Z,0
2018-02-27T00:30:35.674Z,0
2018-02-27T00:31:35.976Z,0
2018-02-27T00:32:35.354Z,0
2018-02-27T00:33:35.063Z,0
2018-02-27T00:34:35.293Z,0
2018-02-27T00:35:35.545Z,0
2018-02-27T00:36:35.509Z,0
2018-02-27T00:37:35.214Z,0
2018-02-27T00:38:35.715Z,0
2018-02-27T00:39:35.415Z,0
2018-02-27T00:40:34.863Z,0
2018-02-27T00:41:35.366Z,0
2018-02-27T00:42:35.348Z,0
2018-02-27T00:43:35.310Z,0
2018-02-27T00:44:35.278Z,0
2018-02-27T00:45:35.247Z,0
2018-02-27T00:46:34.957Z,0
2018-02-27T00:47:35.458Z,0
2018-02-27T00:48:34.635Z,0
2018-02-27T00:49:34.876Z,0
2018-02-27T00:50:34.844Z,0
2018-02-27T00:51:34.816Z,0
2018-02-27T00:52:34.522Z,0
2018-02-27T00:53:35.027Z,0
2018-02-27T00:54:34.998Z,0
2018-02-27T00:55:34.699Z,0
2018-02-27T00:56:34.939Z,0
2018-02-27T00:57:35.173Z,0
2018-02-27T00:58:34.885Z,0
2018-02-27T00:59:34.592Z,0
2018-02-27T01:00:35.091Z,0
2018-02-27T01:01:34.803Z,0
2018-02-27T01:02:35.033Z,0
2018-02-27T01:03:35.003Z,0
2018-02-27T01:04:34.446Z,0
2018-02-27T01:05:34.419Z,0
2018-02-27T01:06:34.655Z,0
2018-02-27T01:07:34.889Z,0
2018-02-27T01:08:34.068Z,0
2018-02-27T01:09:34.310Z,0
2018-02-27T01:10:34.551Z,0
2018-02-27T01:11:33.982Z,0
2018-02-27T01:12:34.217Z,0
2018-02-27T01:13:34.454Z,0
2018-02-27T01:14:34.159Z,0
2018-02-27T01:15:34.677Z,0
2018-02-27T01:16:34.104Z,0
2018-02-27T01:17:34.613Z,0
2018-02-27T01:18:34.584Z,0
2018-02-27T01:19:34.023Z,0
2018-02-27T01:20:33.998Z,0
2018-02-27T01:21:34.237Z,0
2018-02-27T01:22:34.138Z,0
2018-02-27T01:23:33.914Z,0
2018-02-27T01:24:33.883Z,0
2018-02-27T01:25:34.112Z,0
2018-02-27T01:26:34.085Z,0
2018-02-27T01:27:34.064Z,0
2018-02-27T01:28:33.765Z,0
2018-02-27T01:29:33.997Z,0
2018-02-27T01:30:33.708Z,0
2018-02-27T01:31:33.680Z,0
2018-02-27T01:32:33.912Z,0
2018-02-27T01:33:33.882Z,0
2018-02-27T01:34:33.859Z,0
2018-02-27T01:35:33.576Z,0
2018-02-27T01:36:33.536Z,0
2018-02-27T01:37:33.509Z,0
2018-02-27T01:38:33.216Z,0
2018-02-27T01:39:33.730Z,0
2018-02-27T01:40:33.689Z,0
2018-02-27T01:41:33.653Z,0
2018-02-27T01:42:33.631Z,0
2018-02-27T01:43:33.611Z,0
2018-02-27T01:44:33.308Z,0
2018-02-27T01:45:33.280Z,0
2018-02-27T01:46:33.515Z,0
2018-02-27T01:47:33.220Z,0
2018-02-27T01:48:33.460Z,0
2018-02-27T01:49:33.435Z,0
2018-02-27T01:50:33.407Z,0
2018-02-27T01:51:33.371Z,0
2018-02-27T01:52:33.340Z,0
2018-02-27T01:53:33.641Z,0
2018-02-27T01:54:33.040Z,0
2018-02-27T01:55:33.273Z,0
2018-02-27T01:56:33.577Z,0
2018-02-27T01:57:32.669Z,0
2018-02-27T01:58:33.458Z,0
2018-02-27T01:59:32.877Z,0
2018-02-27T02:00:32.848Z,0
2018-02-27T02:01:32.822Z,0
2018-02-27T02:02:33.061Z,0
2018-02-27T02:03:32.764Z,0
2018-02-27T02:04:33.011Z,0
2018-02-27T02:05:32.975Z,0
2018-02-27T02:06:32.940Z,0
2018-02-27T02:07:33.180Z,0
2018-02-27T02:08:32.885Z,0
2018-02-27T02:09:32.859Z,0
2018-02-27T02:10:32.571Z,0
2018-02-27T02:11:32.546Z,0
2018-02-27T02:12:32.508Z,0
2018-02-27T02:13:32.472Z,0
2018-02-27T02:14:32.712Z,0
2018-02-27T02:15:32.684Z,0
2018-02-27T02:16:32.660Z,0
2018-02-27T02:17:32.361Z,0
2018-02-27T02:18:32.341Z,0
2018-02-27T02:19:32.310Z,0
2018-02-27T02:20:32.273Z,0
2018-02-27T02:21:32.511Z,0
2018-02-27T02:22:32.483Z,0
2018-02-27T02:23:32.456Z,0
2018-02-27T02:24:32.243Z,0
2018-02-27T02:25:32.395Z,0
2018-02-27T02:26:32.372Z,0
2018-02-27T02:27:32.605Z,0
2018-02-27T02:28:32.048Z,0
2018-02-27T02:29:32.289Z,0
2018-02-27T02:30:32.307Z,0
2018-02-27T02:31:31.701Z,0
2018-02-27T02:32:32.210Z,0
2018-02-27T02:33:32.214Z,0
2018-02-27T02:34:31.873Z,0
2018-02-27T02:35:31.844Z,0
2018-02-27T02:36:32.348Z,0
2018-02-27T02:37:32.050Z,0
2018-02-27T02:38:31.493Z,0
2018-02-27T02:39:32.002Z,0
2018-02-27T02:40:31.961Z,0
2018-02-27T02:41:32.199Z,0
2018-02-27T02:42:31.638Z,0
2018-02-27T02:43:31.344Z,0
2018-02-27T02:44:31.849Z,0
2018-02-27T02:45:32.085Z,0
2018-02-27T02:46:31.786Z,0
2018-02-27T02:47:31.497Z,0
2018-02-27T02:48:31.478Z,0
2018-02-27T02:49:31.486Z,0
2018-02-27T02:50:31.139Z,0
2018-02-27T02:51:31.642Z,0
2018-02-27T02:52:31.619Z,0
2018-02-27T02:53:31.317Z,0
2018-02-27T02:54:31.287Z,0
2018-02-27T02:55:31.524Z,0
2018-02-27T02:56:31.500Z,0
2018-02-27T02:57:31.199Z,0
2018-02-27T02:58:31.174Z,0
2018-02-27T02:59:31.676Z,0
2018-02-27T03:00:31.395Z,0
2018-02-27T03:01:31.368Z,0
2018-02-27T03:02:31.321Z,0
2018-02-27T03:03:31.296Z,0
2018-02-27T03:04:31.268Z,0
2018-02-27T03:05:30.975Z,0
2018-02-27T03:06:31.202Z,0
2018-02-27T03:07:31.508Z,0
2018-02-27T03:08:31.174Z,0
2018-02-27T03:09:31.127Z,0
2018-02-27T03:10:30.560Z,0
2018-02-27T03:11:31.335Z,0
2018-02-27T03:12:30.773Z,0
2018-02-27T03:13:30.739Z,0
2018-02-27T03:14:30.980Z,0
2018-02-27T03:15:30.685Z,0
2018-02-27T03:16:31.193Z,0
2018-02-27T03:17:30.917Z,0
2018-02-27T03:18:30.859Z,0
2018-02-27T03:19:30.826Z,0
2018-02-27T03:20:30.536Z,0
2018-02-27T03:21:31.038Z,0
2018-02-27T03:22:30.472Z,0
2018-02-27T03:23:30.496Z,0
2018-02-27T03:24:30.680Z,0
2018-02-27T03:25:30.650Z,0
2018-02-27T03:26:30.629Z,0
2018-02-27T03:27:30.870Z,0
2018-02-27T03:28:30.831Z,0
2018-02-27T03:29:30.532Z,0
2018-02-27T03:30:30.513Z,0
2018-02-27T03:31:30.491Z,0
2018-02-27T03:32:29.917Z,0
2018-02-27T03:33:30.682Z,0
2018-02-27T03:34:30.395Z,0
2018-02-27T03:35:30.096Z,0
2018-02-27T03:36:30.606Z,0
2018-02-27T03:37:30.041Z,0
2018-02-27T03:38:30.269Z,0
2018-02-27T03:39:30.030Z,0
2018-02-27T03:40:29.680Z,0
2018-02-27T03:41:29.917Z,0
2018-02-27T03:42:29.632Z,0
2018-02-27T03:43:29.856Z,0
2018-02-27T03:44:30.097Z,0
2018-02-27T03:45:30.069Z,0
2018-02-27T03:46:30.036Z,0
2018-02-27T03:47:30.280Z,0
2018-02-27T03:48:29.985Z,0
2018-02-27T03:49:29.948Z,0
2018-02-27T03:50:29.390Z,0
2018-02-27T03:51:29.631Z,0
2018-02-27T03:52:29.861Z,0
2018-02-27T03:53:29.571Z,0
2018-02-27T03:54:29.591Z,0
2018-02-27T03:55:29.508Z,0
2018-02-27T03:56:29.210Z,0
2018-02-27T03:57:29.720Z,0
2018-02-27T03:58:29.158Z,0
2018-02-27T03:59:29.128Z,0
2018-02-27T04:00:29.630Z,0
2018-02-27T04:01:29.623Z,0
2018-02-27T04:02:29.306Z,0
2018-02-27T04:03:29.543Z,0
2018-02-27T04:04:29.509Z,0
2018-02-27T04:05:29.747Z,0
2018-02-27T04:06:29.464Z,0
2018-02-27T04:07:29.164Z,0
2018-02-27T04:08:29.403Z,0
2018-02-27T04:09:29.642Z,0
2018-02-27T04:10:29.068Z,0
2018-02-27T04:11:29.043Z,0
2018-02-27T04:12:29.019Z,0
2018-02-27T04:13:28.742Z,0
2018-02-27T04:14:28.957Z,0
2018-02-27T04:15:29.190Z,0
2018-02-27T04:16:29.180Z,0
2018-02-27T04:17:29.127Z,0
2018-02-27T04:18:29.104Z,0
2018-02-27T04:19:29.344Z,0
2018-02-27T04:20:28.777Z,0
2018-02-27T04:21:29.294Z,0
2018-02-27T04:22:28.750Z,0
2018-02-27T04:23:28.967Z,0
2018-02-27T04:24:28.950Z,0
2018-02-27T04:25:29.176Z,0
2018-02-27T04:26:28.605Z,0
2018-02-27T04:27:28.578Z,0
2018-02-27T04:28:28.277Z,0
2018-02-27T04:29:28.786Z,0
2018-02-27T04:30:28.776Z,0
2018-02-27T04:31:28.726Z,0
2018-02-27T04:32:28.427Z,0
2018-02-27T04:33:28.931Z,0
2018-02-27T04:34:28.365Z,0
2018-02-27T04:35:28.352Z,0
2018-02-27T04:36:28.313Z,0
2018-02-27T04:37:28.571Z,0
2018-02-27T04:38:28.521Z,0
2018-02-27T04:39:28.485Z,0
2018-02-27T04:40:28.462Z,0
2018-02-27T04:41:28.197Z,0
2018-02-27T04:42:28.664Z,0
2018-02-27T04:43:28.106Z,0
2018-02-27T04:44:27.806Z,0
2018-02-27T04:45:28.321Z,0
2018-02-27T04:46:28.018Z,0
2018-02-27T04:47:28.256Z,0
2018-02-27T04:48:27.962Z,0
2018-02-27T04:49:27.662Z,0
2018-02-27T04:50:27.634Z,0
2018-02-27T04:51:28.136Z,0
2018-02-27T04:52:28.371Z,0
2018-02-27T04:53:28.072Z,0
2018-02-27T04:54:27.782Z,0
2018-02-27T04:55:28.287Z,0
2018-02-27T04:56:27.988Z,0
2018-02-27T04:57:28.223Z,0
2018-02-27T04:58:27.927Z,0
2018-02-27T04:59:27.368Z,0
2018-02-27T05:00:28.125Z,0
2018-02-27T05:01:27.308Z,0
2018-02-27T05:02:27.812Z,0
2018-02-27T05:03:27.781Z,0
2018-02-27T05:04:27.745Z,0
2018-02-27T05:05:27.459Z,0
2018-02-27T05:06:27.424Z,0
2018-02-27T05:07:27.664Z,0
2018-02-27T05:08:27.921Z,0
2018-02-27T05:09:27.083Z,0
2018-02-27T05:10:27.577Z,0
2018-02-27T05:11:27.278Z,0
2018-02-27T05:12:27.508Z,0
2018-02-27T05:13:27.487Z,0
2018-02-27T05:14:27.453Z,0
2018-02-27T05:15:27.157Z,0
2018-02-27T05:16:27.731Z,0
2018-02-27T05:17:27.375Z,0
2018-02-27T05:18:27.083Z,0
2018-02-27T05:19:27.307Z,0
2018-02-27T05:20:27.280Z,0
2018-02-27T05:21:27.509Z,0
2018-02-27T05:22:26.965Z,0
2018-02-27T05:23:27.393Z,0
2018-02-27T05:24:26.893Z,0
2018-02-27T05:25:27.397Z,0
2018-02-27T05:26:27.118Z,0
2018-02-27T05:27:27.331Z,0
2018-02-27T05:28:27.304Z,0
2018-02-27T05:29:27.031Z,0
2018-02-27T05:30:26.979Z,0
2018-02-27T05:31:26.685Z,0
2018-02-27T05:32:26.657Z,0
2018-02-27T05:33:26.626Z,0
2018-02-27T05:34:26.881Z,0
2018-02-27T05:35:26.840Z,0
2018-02-27T05:36:26.540Z,0
2018-02-27T05:37:27.041Z,0
2018-02-27T05:38:26.476Z,0
2018-02-27T05:39:26.764Z,0
2018-02-27T05:40:26.684Z,0
2018-02-27T05:41:26.951Z,0
2018-02-27T05:42:26.641Z,0
2018-02-27T05:43:26.348Z,0
2018-02-27T05:44:26.303Z,0
2018-02-27T05:45:26.549Z,0
2018-02-27T05:46:26.518Z,0
2018-02-27T05:47:26.476Z,0
2018-02-27T05:48:26.446Z,0
2018-02-27T05:49:26.430Z,0
2018-02-27T05:50:26.121Z,0
2018-02-27T05:51:25.830Z,4
2018-02-27T05:52:26.063Z,4
2018-02-27T05:53:26.305Z,0
2018-02-27T05:54:25.754Z,4
2018-02-27T05:55:26.510Z,4
2018-02-27T05:56:26.252Z,4
2018-02-27T05:57:26.195Z,8
2018-02-27T05:58:25.880Z,8
2018-02-27T05:59:25.862Z,8
2018-02-27T06:00:26.359Z,8
2018-02-27T06:01:26.118Z,12
2018-02-27T06:02:26.299Z,12
2018-02-27T06:03:25.742Z,16
2018-02-27T06:04:26.244Z,16
2018-02-27T06:05:25.678Z,20
2018-02-27T06:06:25.648Z,24
2018-02-27T06:07:25.620Z,28
2018-02-27T06:08:25.857Z,32
2018-02-27T06:09:26.120Z,40
2018-02-27T06:10:25.793Z,44
2018-02-27T06:11:25.495Z,52
2018-02-27T06:12:25.469Z,60
2018-02-27T06:13:25.707Z,68
2018-02-27T06:14:25.147Z,76
2018-02-27T06:15:25.388Z,84
2018-02-27T06:16:25.087Z,100
2018-02-27T06:17:25.327Z,112
2018-02-27T06:18:25.827Z,120
2018-02-27T06:19:25.264Z,132
2018-02-27T06:20:25.233Z,148
2018-02-27T06:21:25.206Z,164
2018-02-27T06:22:25.437Z,184
2018-02-27T06:23:25.139Z,196
2018-02-27T06:24:25.386Z,212
2018-02-27T06:25:24.816Z,232
2018-02-27T06:26:25.577Z,252
2018-02-27T06:27:24.758Z,272
2018-02-27T06:28:24.996Z,292
2018-02-27T06:29:24.964Z,316
2018-02-27T06:30:24.945Z,344
2018-02-27T06:31:25.568Z,384
2018-02-27T06:32:24.876Z,416
2018-02-27T06:33:25.380Z,440
2018-02-27T06:34:25.082Z,460
2018-02-27T06:35:24.836Z,492
2018-02-27T06:36:24.756Z,508
2018-02-27T06:37:25.334Z,524
2018-02-27T06:38:24.968Z,548
2018-02-27T06:39:25.203Z,580
2018-02-27T06:40:24.642Z,608
2018-02-27T06:41:24.876Z,640
2018-02-27T06:42:25.109Z,700
2018-02-27T06:43:24.817Z,764
2018-02-27T06:44:24.518Z,820
2018-02-27T06:45:24.493Z,872
2018-02-27T06:46:24.989Z,912
2018-02-27T06:47:24.427Z,944
2018-02-27T06:48:24.927Z,964
2018-02-27T06:49:24.938Z,980
2018-02-27T06:50:24.609Z,992
2018-02-27T06:51:24.313Z,1028
2018-02-27T06:52:24.813Z,1056
2018-02-27T06:53:24.253Z,1100
2018-02-27T06:54:24.229Z,1148
2018-02-27T06:55:24.252Z,1152
2018-02-27T06:56:24.425Z,1156
2018-02-27T06:57:24.661Z,1148
2018-02-27T06:58:24.368Z,1144
2018-02-27T06:59:24.077Z,1136
2018-02-27T07:00:24.377Z,1156
2018-02-27T07:01:24.027Z,1200
2018-02-27T07:02:24.528Z,1236
2018-02-27T07:03:23.959Z,1268
2018-02-27T07:04:23.929Z,1288
2018-02-27T07:05:24.435Z,1308
2018-02-27T07:06:24.181Z,1344
2018-02-27T07:07:24.122Z,1384
2018-02-27T07:08:24.123Z,1428
2018-02-27T07:09:23.803Z,1480
2018-02-27T07:10:24.083Z,1560
2018-02-27T07:11:24.003Z,1688
2018-02-27T07:12:23.955Z,1828
2018-02-27T07:13:23.927Z,1996
2018-02-27T07:14:23.897Z,2180
2018-02-27T07:15:23.879Z,2356
2018-02-27T07:16:23.843Z,2512
2018-02-27T07:17:23.276Z,2620
2018-02-27T07:18:23.779Z,2756
2018-02-27T07:19:23.760Z,2856
2018-02-27T07:20:23.725Z,2884
2018-02-27T07:21:23.696Z,2920
2018-02-27T07:22:23.136Z,2924
2018-02-27T07:23:23.848Z,2824
2018-02-27T07:24:23.603Z,2780
2018-02-27T07:25:23.578Z,2824
2018-02-27T07:26:23.285Z,2904
2018-02-27T07:27:23.251Z,2928
2018-02-27T07:28:23.223Z,2832
2018-02-27T07:29:23.195Z,2664
2018-02-27T07:30:23.436Z,2556
2018-02-27T07:31:23.140Z,2584
2018-02-27T07:32:22.844Z,2652
2018-02-27T07:33:23.079Z,2676
2018-02-27T07:34:23.584Z,2872
2018-02-27T07:35:23.658Z,3012
2018-02-27T07:36:23.261Z,3108
2018-02-27T07:37:23.500Z,3020
2018-02-27T07:38:23.472Z,2932
2018-02-27T07:39:22.910Z,2920
2018-02-27T07:40:22.884Z,2944
2018-02-27T07:41:22.856Z,2992
2018-02-27T07:42:23.359Z,3000
2018-02-27T07:43:23.061Z,3136
2018-02-27T07:44:23.038Z,3208
2018-02-27T07:45:22.738Z,3312
2018-02-27T07:46:22.976Z,3236
2018-02-27T07:47:22.961Z,3100
2018-02-27T07:48:23.188Z,3080
2018-02-27T07:49:22.916Z,3132
2018-02-27T07:50:22.898Z,3320
2018-02-27T07:51:22.848Z,3536
2018-02-27T07:52:22.552Z,3400
2018-02-27T07:53:22.787Z,3120
2018-02-27T07:54:22.493Z,2920
2018-02-27T07:55:22.199Z,2816
2018-02-27T07:56:22.165Z,2712
2018-02-27T07:57:22.675Z,2676
2018-02-27T07:58:22.390Z,2772
2018-02-27T07:59:22.618Z,2704
2018-02-27T08:00:22.584Z,2744
2018-02-27T08:01:22.306Z,2860
2018-02-27T08:02:22.271Z,3240
2018-02-27T08:03:22.560Z,3692
2018-02-27T08:04:21.940Z,3860
2018-02-27T08:05:22.444Z,3840
2018-02-27T08:06:22.701Z,3764
2018-02-27T08:07:22.396Z,4108
2018-02-27T08:08:22.363Z,4808
2018-02-27T08:09:21.802Z,5004
2018-02-27T08:10:22.577Z,5024
2018-02-27T08:11:22.548Z,5024
2018-02-27T08:12:21.984Z,4972
2018-02-27T08:13:22.220Z,5128
2018-02-27T08:14:21.926Z,5228
2018-02-27T08:15:22.175Z,5268
2018-02-27T08:16:22.156Z,5388
2018-02-27T08:17:22.117Z,5508
2018-02-27T08:18:21.818Z,5580
2018-02-27T08:19:21.806Z,5896
2018-02-27T08:20:21.784Z,6272
2018-02-27T08:21:21.747Z,6420
2018-02-27T08:22:21.980Z,6744
2018-02-27T08:23:22.217Z,6552
2018-02-27T08:24:21.949Z,6224
2018-02-27T08:25:21.659Z,5796
2018-02-27T08:26:21.905Z,5280
2018-02-27T08:27:21.841Z,4524
2018-02-27T08:28:21.285Z,4580
2018-02-27T08:29:21.795Z,4820
2018-02-27T08:30:21.502Z,6180
2018-02-27T08:31:22.013Z,7184
2018-02-27T08:32:21.704Z,10680
2018-02-27T08:33:21.678Z,8576
2018-02-27T08:34:21.132Z,6128
2018-02-27T08:35:21.912Z,6204
2018-02-27T08:36:21.616Z,9260
2018-02-27T08:37:21.581Z,13380
2018-02-27T08:38:21.577Z,15616
2018-02-27T08:39:21.264Z,15936
2018-02-27T08:40:21.238Z,15232
2018-02-27T08:41:21.200Z,15136
2018-02-27T08:42:21.452Z,15328
2018-02-27T08:43:21.428Z,14944
2018-02-27T08:44:21.467Z,14304
2018-02-27T08:45:21.376Z,13668
2018-02-27T08:46:21.095Z,14168
2018-02-27T08:47:21.064Z,16224
2018-02-27T08:48:21.590Z,18432
2018-02-27T08:49:21.301Z,19552
2018-02-27T08:50:21.276Z,18304
2018-02-27T08:51:20.979Z,16768
2018-02-27T08:52:21.486Z,15648
2018-02-27T08:53:20.936Z,13728
2018-02-27T08:54:20.651Z,14176
2018-02-27T08:55:20.910Z,16608
2018-02-27T08:56:21.202Z,20544
2018-02-27T08:57:21.434Z,22080
2018-02-27T08:58:20.835Z,21536
2018-02-27T08:59:21.338Z,18560
2018-02-27T09:00:21.067Z,15520
2018-02-27T09:01:21.049Z,13920
2018-02-27T09:02:21.018Z,11888
2018-02-27T09:03:20.476Z,12528
2018-02-27T09:04:21.000Z,16096
2018-02-27T09:05:20.974Z,20320
2018-02-27T09:06:20.946Z,22240
2018-02-27T09:07:21.196Z,21600
2018-02-27T09:08:20.655Z,15480
2018-02-27T09:09:20.677Z,9636
2018-02-27T09:10:20.874Z,13124
2018-02-27T09:11:20.866Z,16032
2018-02-27T09:12:20.578Z,14976
2018-02-27T09:13:20.822Z,13468
2018-02-27T09:14:20.807Z,14088
2018-02-27T09:15:20.522Z,14920
2018-02-27T09:16:20.774Z,15544
2018-02-27T09:17:20.493Z,15360
2018-02-27T09:18:20.997Z,15940
2018-02-27T09:19:20.896Z,14772
2018-02-27T09:20:20.522Z,20640
2018-02-27T09:21:20.682Z,19936
2018-02-27T09:22:20.668Z,17280
2018-02-27T09:23:20.581Z,12172
2018-02-27T09:24:20.623Z,10396
2018-02-27T09:25:20.604Z,8440
2018-02-27T09:26:20.584Z,5268
2018-02-27T09:27:20.571Z,5904
2018-02-27T09:28:20.549Z,10636
2018-02-27T09:29:20.846Z,13984
2018-02-27T09:30:20.780Z,9588
2018-02-27T09:31:20.034Z,8344
2018-02-27T09:32:20.210Z,8444
2018-02-27T09:33:19.978Z,9092
2018-02-27T09:34:19.898Z,9924
2018-02-27T09:35:20.146Z,9076
2018-02-27T09:36:20.391Z,12624
2018-02-27T09:37:20.109Z,19008
2018-02-27T09:38:20.096Z,13912
2018-02-27T09:39:20.092Z,13632
2018-02-27T09:40:19.776Z,13368
2018-02-27T09:41:20.297Z,8500
2018-02-27T09:42:20.272Z,7628
2018-02-27T09:43:20.243Z,9956
2018-02-27T09:44:20.224Z,18208
2018-02-27T09:45:20.479Z,13136
2018-02-27T09:46:19.918Z,8024
2018-02-27T09:47:20.175Z,12596
2018-02-27T09:48:20.163Z,20160
2018-02-27T09:49:20.117Z,24800
2018-02-27T09:50:20.098Z,27040
2018-02-27T09:51:19.826Z,27584
2018-02-27T09:52:20.064Z,26816
2018-02-27T09:53:20.314Z,27200
2018-02-27T09:54:20.023Z,24384
2018-02-27T09:55:19.739Z,22688
2018-02-27T09:56:19.976Z,25216
2018-02-27T09:57:19.452Z,28768
2018-02-27T09:58:20.001Z,29120
2018-02-27T09:59:19.425Z,22336
2018-02-27T10:00:19.666Z,11112
2018-02-27T10:01:20.171Z,8664
2018-02-27T10:02:19.876Z,8848
2018-02-27T10:03:19.587Z,6340
2018-02-27T10:04:19.834Z,5872
2018-02-27T10:05:19.542Z,7008
2018-02-27T10:06:19.806Z,11300
2018-02-27T10:07:19.506Z,16384
2018-02-27T10:08:19.753Z,7856
2018-02-27T10:09:19.993Z,18048
2018-02-27T10:10:19.713Z,23136
2018-02-27T10:11:19.427Z,5612
2018-02-27T10:12:19.686Z,18816
2018-02-27T10:13:19.923Z,9000
2018-02-27T10:14:19.372Z,9340
2018-02-27T10:15:19.088Z,9652
2018-02-27T10:16:19.327Z,13724
2018-02-27T10:17:19.623Z,16672
2018-02-27T10:18:19.297Z,14752
2018-02-27T10:19:19.536Z,9940
2018-02-27T10:20:19.516Z,9972
2018-02-27T10:21:19.486Z,18880
2018-02-27T10:22:19.213Z,20352
2018-02-27T10:23:19.187Z,25312
2018-02-27T10:24:19.428Z,12072
2018-02-27T10:25:19.143Z,27744
2018-02-27T10:26:19.129Z,30432
2018-02-27T10:27:19.370Z,28320
2018-02-27T10:28:19.346Z,8532
2018-02-27T10:29:19.117Z,23040
2018-02-27T10:30:19.046Z,9140
2018-02-27T10:31:19.286Z,8748
2018-02-27T10:32:19.529Z,8924
2018-02-27T10:33:18.981Z,8624
2018-02-27T10:34:19.227Z,9544
2018-02-27T10:35:19.479Z,10592
2018-02-27T10:36:19.195Z,22304
2018-02-27T10:37:18.906Z,22592
2018-02-27T10:38:18.660Z,19488
2018-02-27T10:39:18.858Z,15348
2018-02-27T10:40:19.107Z,27264
2018-02-27T10:41:19.081Z,30176
2018-02-27T10:42:18.796Z,14708
2018-02-27T10:43:19.091Z,12628
2018-02-27T10:44:18.755Z,23872
2018-02-27T10:45:18.785Z,22336
2018-02-27T10:46:19.016Z,28672
2018-02-27T10:47:18.694Z,36352
2018-02-27T10:48:18.992Z,14632
2018-02-27T10:49:18.915Z,15948
2018-02-27T10:50:18.367Z,25184
2018-02-27T10:51:19.145Z,14604
2018-02-27T10:52:18.860Z,34144
2018-02-27T10:53:18.581Z,33632
2018-02-27T10:54:18.550Z,42912
2018-02-27T10:55:18.272Z,36640
2018-02-27T10:56:18.779Z,29056
2018-02-27T10:57:19.148Z,10064
2018-02-27T10:58:18.790Z,9776
2018-02-27T10:59:18.724Z,10792
2018-02-27T11:00:18.441Z,12836
2018-02-27T11:01:18.965Z,12524
2018-02-27T11:02:18.419Z,34784
2018-02-27T11:03:18.125Z,32832
2018-02-27T11:04:18.637Z,25248
2018-02-27T11:05:18.354Z,22464
2018-02-27T11:06:18.333Z,24288
2018-02-27T11:07:18.064Z,31808
2018-02-27T11:08:18.348Z,33728
2018-02-27T11:09:18.814Z,36576
2018-02-27T11:10:18.790Z,38144
2018-02-27T11:11:18.245Z,38592
2018-02-27T11:12:18.757Z,35840
2018-02-27T11:13:18.483Z,36672
2018-02-27T11:14:18.463Z,33472
2018-02-27T11:15:18.183Z,10632
2018-02-27T11:16:18.434Z,9908
2018-02-27T11:17:18.672Z,14764
2018-02-27T11:18:18.129Z,13896
2018-02-27T11:19:18.376Z,41120
2018-02-27T11:20:18.364Z,40128
2018-02-27T11:21:18.072Z,33632
2018-02-27T11:22:17.795Z,27328
2018-02-27T11:23:18.709Z,28896
2018-02-27T11:24:18.300Z,35040
2018-02-27T11:25:18.270Z,37312
2018-02-27T11:26:18.522Z,42144
2018-02-27T11:27:18.242Z,29248
2018-02-27T11:28:17.691Z,28128
2018-02-27T11:29:18.258Z,33152
2018-02-27T11:30:17.973Z,39424
2018-02-27T11:31:17.908Z,36736
2018-02-27T11:32:18.162Z,14160
2018-02-27T11:33:17.608Z,10476
2018-02-27T11:34:18.465Z,9920
2018-02-27T11:35:18.379Z,11008
2018-02-27T11:36:18.125Z,11152
2018-02-27T11:37:17.812Z,8368
2018-02-27T11:38:18.334Z,7248
2018-02-27T11:39:17.791Z,7868
2018-02-27T11:40:18.051Z,7960
2018-02-27T11:41:18.299Z,8036
2018-02-27T11:42:17.476Z,17696
2018-02-27T11:43:17.978Z,16256
2018-02-27T11:44:17.960Z,10240
2018-02-27T11:45:17.417Z,9332
2018-02-27T11:46:17.928Z,8240
2018-02-27T11:47:17.647Z,8792
2018-02-27T11:48:17.893Z,10460
2018-02-27T11:49:17.407Z,9616
2018-02-27T11:50:17.856Z,9292
2018-02-27T11:51:18.107Z,9000
2018-02-27T11:52:17.570Z,8472
2018-02-27T11:53:18.067Z,7940
2018-02-27T11:54:17.792Z,8092
2018-02-27T11:55:17.511Z,8180
2018-02-27T11:56:17.751Z,8020
2018-02-27T11:57:17.726Z,7872
2018-02-27T11:58:17.459Z,9920
2018-02-27T11:59:17.417Z,11444
2018-02-27T12:00:17.131Z,12544
2018-02-27T12:01:17.907Z,11260
2018-02-27T12:02:17.633Z,10828
2018-02-27T12:03:17.606Z,11412
2018-02-27T12:04:17.852Z,11528
2018-02-27T12:05:17.030Z,13140
2018-02-27T12:06:17.812Z,13404
2018-02-27T12:07:17.249Z,10652
2018-02-27T12:08:17.636Z,9292
2018-02-27T12:09:17.266Z,9796
2018-02-27T12:10:17.191Z,11216
2018-02-27T12:11:16.908Z,20320
2018-02-27T12:12:17.416Z,27360
2018-02-27T12:13:17.666Z,15928
2018-02-27T12:14:17.375Z,15584
2018-02-27T12:15:17.090Z,30112
2018-02-27T12:16:17.061Z,20768
2018-02-27T12:17:17.051Z,15628
2018-02-27T12:18:17.303Z,15908
2018-02-27T12:19:17.013Z,17376
2018-02-27T12:20:16.981Z,18176
2018-02-27T12:21:17.225Z,25312
2018-02-27T12:22:17.472Z,43904
2018-02-27T12:23:17.188Z,18528
2018-02-27T12:24:16.642Z,14620
2018-02-27T12:25:16.959Z,48512
2018-02-27T12:26:17.423Z,26816
2018-02-27T12:27:16.841Z,14944
2018-02-27T12:28:16.833Z,29696
2018-02-27T12:29:16.824Z,32736
2018-02-27T12:30:16.897Z,50240
2018-02-27T12:31:17.038Z,41632
2018-02-27T12:32:16.747Z,16992
2018-02-27T12:33:16.738Z,16832
2018-02-27T12:34:16.977Z,18400
2018-02-27T12:35:16.697Z,47072
2018-02-27T12:36:16.942Z,39392
2018-02-27T12:37:16.946Z,40640
2018-02-27T12:38:16.911Z,41856
2018-02-27T12:39:16.361Z,44000
2018-02-27T12:40:16.873Z,43360
2018-02-27T12:41:16.860Z,43040
2018-02-27T12:42:17.112Z,38080
2018-02-27T12:43:16.565Z,10468
2018-02-27T12:44:16.813Z,10744
2018-02-27T12:45:16.800Z,12868
2018-02-27T12:46:16.790Z,11092
2018-02-27T12:47:16.771Z,33216
2018-02-27T12:48:16.538Z,12492
2018-02-27T12:49:17.011Z,17536
2018-02-27T12:50:16.508Z,10632
2018-02-27T12:51:16.711Z,11204
2018-02-27T12:52:16.456Z,11700
2018-02-27T12:53:16.424Z,9072
2018-02-27T12:54:16.662Z,48928
2018-02-27T12:55:16.650Z,45440
2018-02-27T12:56:16.900Z,46944
2018-02-27T12:57:16.344Z,48832
2018-02-27T12:58:16.632Z,48096
2018-02-27T12:59:16.312Z,48320
2018-02-27T13:00:16.086Z,49536
2018-02-27T13:01:16.854Z,48544
2018-02-27T13:02:16.562Z,48608
2018-02-27T13:03:16.524Z,47616
2018-02-27T13:04:16.251Z,48640
2018-02-27T13:05:16.762Z,48800
2018-02-27T13:06:16.490Z,50176
2018-02-27T13:07:16.483Z,50080
2018-02-27T13:08:16.464Z,49888
2018-02-27T13:09:15.923Z,49856
2018-02-27T13:10:15.920Z,49600
2018-02-27T13:11:16.178Z,50464
2018-02-27T13:12:16.421Z,49504
2018-02-27T13:13:16.409Z,27136
2018-02-27T13:14:16.668Z,50432
2018-02-27T13:15:16.396Z,49408
2018-02-27T13:16:16.639Z,47680
2018-02-27T13:17:16.383Z,44640
2018-02-27T13:18:16.095Z,44928
2018-02-27T13:19:16.211Z,46240
2018-02-27T13:20:16.072Z,48384
2018-02-27T13:21:16.078Z,49120
2018-02-27T13:22:15.792Z,49440
2018-02-27T13:23:16.252Z,50752
2018-02-27T13:24:16.308Z,51968
2018-02-27T13:25:16.560Z,51872
2018-02-27T13:26:16.587Z,53312
2018-02-27T13:27:16.272Z,53408
2018-02-27T13:28:16.268Z,51552
2018-02-27T13:29:16.269Z,49440
2018-02-27T13:30:15.992Z,53216
2018-02-27T13:31:16.241Z,52896
2018-02-27T13:32:16.240Z,49600
2018-02-27T13:33:15.963Z,44960
2018-02-27T13:34:15.965Z,14092
2018-02-27T13:35:16.212Z,11892
2018-02-27T13:36:16.207Z,14516
2018-02-27T13:37:15.943Z,10116
2018-02-27T13:38:15.652Z,37664
2018-02-27T13:39:16.449Z,24256
2018-02-27T13:40:16.437Z,7768
2018-02-27T13:41:15.894Z,7000
2018-02-27T13:42:16.158Z,7764
2018-02-27T13:43:16.137Z,22816
2018-02-27T13:44:16.392Z,7892
2018-02-27T13:45:15.850Z,7764
2018-02-27T13:46:15.833Z,7908
2018-02-27T13:47:16.349Z,8172
2018-02-27T13:48:16.123Z,8612